Yoakum, Texas
Current Conditions -  °F | °C
As of 4:55 PM on Tuesday 27 Jan 2015 (Local Time) from KT20 Reporting Station
Thunderstorm Thunderstorm  
Wind Chill: 80°   Ceiling: Unl
Heat Index: 80°   Visibility: 10mi
Dew Point: 43°   Wind: 0mph
Humidity: 27%   Direction: NA
Pressure: 30.1"   Gusts: NA
Location:  29.29°N, 97.15°W
Report Text: KT20 272255Z AUTO 00000KT 10SM VCTS CLR 27/06 A3010 RMK AO2 T02650060
Loading
Personal Weather Stations






























Interactive Weather Map New forecast layout! Learn more

10-Day Weather Forecast

Advertisements
Track Severe Weather on mobile